createdAt,value
2023-02-11T00:02:51.945Z,11.65
2023-02-11T00:07:54.333Z,15.00
2023-02-11T00:17:58.506Z,9.95
2023-02-11T00:23:00.671Z,14.02
2023-02-11T00:28:02.794Z,16.83
2023-02-11T00:33:04.963Z,16.95
2023-02-11T00:38:07.737Z,13.13
2023-02-11T00:43:09.939Z,14.52
2023-02-11T00:48:12.098Z,12.95
2023-02-11T00:53:14.247Z,15.68
2023-02-11T00:58:16.437Z,11.98
2023-02-11T01:03:18.493Z,13.05
2023-02-11T01:13:22.990Z,11.77
2023-02-11T01:18:25.663Z,9.95
2023-02-11T01:23:28.075Z,14.05
2023-02-11T01:28:30.796Z,11.38
2023-02-11T01:33:35.224Z,12.57
2023-02-11T01:38:37.511Z,14.88
2023-02-11T01:43:41.724Z,12.15
2023-02-11T01:48:56.057Z,14.52
2023-02-11T01:54:17.554Z,15.10
2023-02-11T01:59:39.936Z,13.60
2023-02-11T02:04:45.673Z,11.70
2023-02-11T02:09:52.892Z,12.70
2023-02-11T02:15:11.726Z,14.15
2023-02-11T02:20:32.721Z,13.15
2023-02-11T02:30:45.663Z,12.70
2023-02-11T02:36:09.740Z,11.50
2023-02-11T02:41:19.580Z,13.45
2023-02-11T02:46:24.399Z,13.63
2023-02-11T02:51:41.687Z,16.17
2023-02-11T02:56:43.847Z,11.82
2023-02-11T03:01:55.040Z,9.40
2023-02-11T03:07:12.467Z,12.70
2023-02-11T03:12:14.963Z,10.10
2023-02-11T03:17:17.218Z,18.02
2023-02-11T03:22:22.462Z,13.32
2023-02-11T03:27:27.720Z,10.45
2023-02-11T03:32:35.761Z,9.30
2023-02-11T03:37:48.750Z,14.85
2023-02-11T03:42:57.239Z,12.27
2023-02-11T03:48:02.545Z,11.95
2023-02-11T03:53:05.131Z,9.57
2023-02-11T03:58:07.470Z,10.60
2023-02-11T04:08:11.847Z,7.45
2023-02-11T04:13:14.619Z,13.05
2023-02-11T04:18:16.846Z,9.30
2023-02-11T04:23:19.028Z,9.98
2023-02-11T04:28:21.229Z,12.23
2023-02-11T04:33:23.825Z,5.57
2023-02-11T04:43:27.942Z,6.90
2023-02-11T04:48:30.118Z,8.82
2023-02-11T04:53:32.417Z,8.65
2023-02-11T04:58:34.664Z,8.98
2023-02-11T05:03:37.821Z,6.45
2023-02-11T05:08:40.399Z,8.80
2023-02-11T05:18:45.018Z,11.05
2023-02-11T05:23:47.760Z,6.60
2023-02-11T05:28:50.024Z,7.60
2023-02-11T05:33:52.202Z,9.27
2023-02-11T05:38:54.274Z,9.20
2023-02-11T05:43:56.371Z,11.15
2023-02-11T05:48:58.772Z,8.52
2023-02-11T05:54:00.876Z,11.20
2023-02-11T05:59:03.628Z,9.27
2023-02-11T06:04:05.833Z,9.70
2023-02-11T06:09:07.944Z,10.43
2023-02-11T06:14:11.525Z,14.48
2023-02-11T06:19:13.830Z,13.00
2023-02-11T06:24:19.284Z,10.75
2023-02-11T06:29:26.876Z,8.55
2023-02-11T06:34:29.043Z,13.93
2023-02-11T06:39:32.577Z,10.40
2023-02-11T06:44:34.974Z,11.63
2023-02-11T06:49:37.272Z,9.27
2023-02-11T06:54:39.448Z,10.10
2023-02-11T06:59:41.588Z,9.65
2023-02-11T07:04:44.633Z,6.85
2023-02-11T07:09:46.916Z,12.13
2023-02-11T07:19:51.126Z,9.38
2023-02-11T07:29:55.452Z,8.23
2023-02-11T07:40:00.316Z,10.35
2023-02-11T07:45:02.545Z,11.88
2023-02-11T07:50:08.432Z,8.68
2023-02-11T07:55:10.666Z,10.27
2023-02-11T08:05:14.758Z,8.35
2023-02-11T08:10:17.418Z,9.98
2023-02-11T08:15:19.537Z,6.90
2023-02-11T08:25:23.751Z,13.38
2023-02-11T08:35:29.648Z,9.13
2023-02-11T08:45:33.908Z,10.27
2023-02-11T08:50:39.010Z,5.80
2023-02-11T08:55:41.226Z,6.57
2023-02-11T09:05:48.983Z,11.15
2023-02-11T09:10:51.349Z,9.32
2023-02-11T09:15:54.014Z,5.68
2023-02-11T09:21:06.239Z,7.68
2023-02-11T09:26:09.755Z,15.15
2023-02-11T09:31:13.447Z,6.72
2023-02-11T09:36:20.118Z,5.07
2023-02-11T09:41:25.039Z,7.55
2023-02-11T09:46:28.232Z,7.70
2023-02-11T09:51:39.462Z,6.90
2023-02-11T09:56:41.701Z,8.02
2023-02-11T10:02:10.230Z,5.93
2023-02-11T10:07:12.364Z,8.30
2023-02-11T10:12:31.603Z,7.82
2023-02-11T10:17:48.957Z,9.05
2023-02-11T10:22:53.999Z,7.20
2023-02-11T10:27:58.426Z,8.10
2023-02-11T10:33:00.667Z,7.45
2023-02-11T10:38:02.820Z,8.63
2023-02-11T10:43:06.491Z,7.30
2023-02-11T10:48:28.727Z,8.02
2023-02-11T10:53:31.236Z,8.52
2023-02-11T10:58:39.657Z,9.50
2023-02-11T11:03:49.097Z,9.20
2023-02-11T11:08:52.060Z,9.07
2023-02-11T11:13:54.415Z,6.85
2023-02-11T11:19:08.635Z,10.77
2023-02-11T11:24:26.857Z,10.45
2023-02-11T11:29:38.493Z,8.63
2023-02-11T11:34:42.253Z,7.65
2023-02-11T11:39:49.171Z,8.10
2023-02-11T11:45:03.765Z,9.50
2023-02-11T11:50:07.286Z,6.25
2023-02-11T11:55:12.549Z,7.38
2023-02-11T12:00:16.658Z,7.88
2023-02-11T12:05:57.127Z,5.88
2023-02-11T12:11:05.261Z,9.50
2023-02-11T12:16:23.926Z,7.50
2023-02-11T12:21:34.847Z,6.05
2023-02-11T12:26:44.594Z,6.55
2023-02-11T12:31:47.439Z,6.38
2023-02-11T12:36:58.196Z,9.15
2023-02-11T12:42:18.956Z,7.70
2023-02-11T12:47:30.814Z,8.77
2023-02-11T12:52:38.797Z,7.93
2023-02-11T12:57:42.076Z,10.80
2023-02-11T13:02:54.747Z,6.78
2023-02-11T13:08:05.017Z,13.35
2023-02-11T13:13:19.566Z,9.13
2023-02-11T13:18:24.642Z,8.55
2023-02-11T13:23:52.191Z,7.18
2023-02-11T13:28:59.411Z,8.70
2023-02-11T13:34:01.597Z,8.50
2023-02-11T13:39:06.192Z,6.95
2023-02-11T13:44:11.478Z,8.70
2023-02-11T13:49:21.907Z,12.05
2023-02-11T13:54:26.665Z,13.40
2023-02-11T13:59:30.933Z,10.65
2023-02-11T14:04:52.859Z,10.40
2023-02-11T14:09:57.489Z,9.70
2023-02-11T14:15:08.836Z,13.07
2023-02-11T14:20:29.594Z,11.55
2023-02-11T14:25:32.315Z,13.43
2023-02-11T14:30:43.981Z,11.75
2023-02-11T14:36:05.944Z,12.52
2023-02-11T14:41:11.674Z,12.05
2023-02-11T14:46:15.714Z,10.30
2023-02-11T14:51:21.028Z,11.35
2023-02-11T14:56:27.296Z,10.48
2023-02-11T15:01:34.792Z,11.00
2023-02-11T15:06:41.314Z,14.50
2023-02-11T15:11:44.869Z,8.77
2023-02-11T15:16:47.685Z,12.45
2023-02-11T15:21:51.133Z,13.05
2023-02-11T15:27:08.384Z,13.30
2023-02-11T15:32:10.626Z,12.80
2023-02-11T15:37:22.929Z,10.13
2023-02-11T15:42:34.007Z,9.70
2023-02-11T15:47:41.905Z,10.18
2023-02-11T15:52:46.454Z,11.75
2023-02-11T15:57:54.119Z,11.93
2023-02-11T16:02:56.664Z,12.45
2023-02-11T16:07:59.707Z,12.27
2023-02-11T16:13:20.694Z,13.30
2023-02-11T16:18:39.358Z,14.75
2023-02-11T16:23:44.977Z,11.43
2023-02-11T16:28:47.382Z,12.02
2023-02-11T16:33:49.594Z,12.25
2023-02-11T16:38:51.771Z,12.55
2023-02-11T16:48:56.543Z,13.18
2023-02-11T16:53:58.726Z,12.00
2023-02-11T17:04:03.751Z,15.15
2023-02-11T17:09:07.115Z,14.52
2023-02-11T17:14:09.813Z,14.10
2023-02-11T17:19:17.151Z,15.63
2023-02-11T17:24:21.125Z,17.27
2023-02-11T17:29:24.379Z,14.98
2023-02-11T17:34:26.631Z,15.77
2023-02-11T17:39:29.116Z,18.23
2023-02-11T17:44:31.714Z,17.83
2023-02-11T17:49:34.262Z,15.80
2023-02-11T17:54:36.549Z,19.25
2023-02-11T17:59:39.709Z,18.42
2023-02-11T18:04:42.014Z,18.48
2023-02-11T18:09:44.598Z,23.30
2023-02-11T18:14:46.806Z,17.90
2023-02-11T18:19:49.730Z,17.52
2023-02-11T18:24:55.397Z,17.02
2023-02-11T18:29:57.875Z,18.38
2023-02-11T18:35:00.038Z,22.13
2023-02-11T18:40:02.600Z,21.00
2023-02-11T18:45:09.797Z,23.83
2023-02-11T18:50:14.006Z,20.30
2023-02-11T18:55:16.592Z,21.50
2023-02-11T19:00:19.419Z,23.00
2023-02-11T19:05:22.030Z,24.70
2023-02-11T19:10:24.512Z,21.15
2023-02-11T19:15:27.037Z,19.17
2023-02-11T19:20:33.600Z,18.05
2023-02-11T19:25:35.944Z,17.60
2023-02-11T19:30:38.164Z,22.83
2023-02-11T19:40:42.356Z,18.05
2023-02-11T19:45:44.489Z,20.60
2023-02-11T19:50:46.664Z,17.90
2023-02-11T19:55:49.496Z,18.67
2023-02-11T20:00:51.969Z,22.85
2023-02-11T20:10:56.439Z,18.05
2023-02-11T20:21:02.013Z,20.08
2023-02-11T20:26:08.815Z,22.65
2023-02-11T20:31:14.089Z,24.52
2023-02-11T20:36:17.477Z,24.20
2023-02-11T20:41:26.173Z,29.38
2023-02-11T20:46:29.491Z,19.88
2023-02-11T20:51:32.897Z,18.17
2023-02-11T20:56:36.879Z,24.27
2023-02-11T21:01:40.993Z,27.45
2023-02-11T21:06:44.756Z,29.25
2023-02-11T21:11:47.060Z,24.40
2023-02-11T21:21:51.556Z,26.25
2023-02-11T21:26:54.037Z,19.83
2023-02-11T21:31:56.913Z,21.08
2023-02-11T21:36:59.142Z,23.60
2023-02-11T21:42:01.309Z,20.25
2023-02-11T21:47:03.911Z,24.98
2023-02-11T21:52:06.372Z,20.67
2023-02-11T21:57:10.946Z,22.27
2023-02-11T22:02:13.179Z,21.35
2023-02-11T22:07:15.335Z,24.00
2023-02-11T22:12:17.449Z,26.70
2023-02-11T22:17:19.938Z,23.98
2023-02-11T22:22:23.421Z,25.08
2023-02-11T22:27:25.544Z,18.88
2023-02-11T22:32:28.768Z,30.13
2023-02-11T22:37:31.001Z,18.52
2023-02-11T22:42:33.815Z,18.70
2023-02-11T22:47:37.821Z,25.13
2023-02-11T22:52:41.049Z,21.73
2023-02-11T22:57:43.225Z,18.33
2023-02-11T23:02:45.372Z,25.17
2023-02-11T23:07:47.573Z,24.85
2023-02-11T23:12:49.757Z,17.88
2023-02-11T23:17:51.886Z,18.55
2023-02-11T23:22:54.112Z,24.48
2023-02-11T23:27:56.487Z,19.10
2023-02-11T23:32:58.699Z,21.27
2023-02-11T23:43:03.599Z,15.73
2023-02-11T23:48:07.166Z,19.95
2023-02-11T23:53:09.377Z,23.95
2023-02-11T23:58:12.655Z,18.85
